createdAt,value
2023-05-09T00:00:32.785Z,13.00
2023-05-09T00:03:00.093Z,13.02
2023-05-09T00:05:26.675Z,12.93
2023-05-09T00:07:53.153Z,14.93
2023-05-09T00:10:19.845Z,14.13
2023-05-09T00:12:47.234Z,11.80
2023-05-09T00:15:14.012Z,12.40
2023-05-09T00:17:40.805Z,11.50
2023-05-09T00:20:11.574Z,14.27
2023-05-09T00:22:40.595Z,12.50
2023-05-09T00:25:11.553Z,13.35
2023-05-09T00:27:38.410Z,11.88
2023-05-09T00:30:06.205Z,15.02
2023-05-09T00:32:33.712Z,14.32
2023-05-09T00:35:00.166Z,13.70
2023-05-09T00:37:26.779Z,13.63
2023-05-09T00:39:53.286Z,12.93
2023-05-09T00:42:19.786Z,11.98
2023-05-09T00:44:46.507Z,12.30
2023-05-09T00:47:13.003Z,13.23
2023-05-09T00:49:39.659Z,14.80
2023-05-09T00:52:06.288Z,16.95
2023-05-09T00:54:32.896Z,12.95
2023-05-09T00:56:59.370Z,12.15
2023-05-09T00:59:26.237Z,12.23
2023-05-09T01:01:52.733Z,12.52
2023-05-09T01:04:19.335Z,15.88
2023-05-09T01:07:00.967Z,14.20
2023-05-09T01:10:01.710Z,14.18
2023-05-09T01:12:42.138Z,13.38
2023-05-09T01:15:18.440Z,14.32
2023-05-09T01:18:01.093Z,11.80
2023-05-09T01:20:35.540Z,13.68
2023-05-09T01:23:15.455Z,12.27
2023-05-09T01:26:11.812Z,13.20
2023-05-09T01:28:41.377Z,12.57
2023-05-09T01:31:08.998Z,15.80
2023-05-09T01:33:38.908Z,14.80
2023-05-09T01:36:12.126Z,15.18
2023-05-09T01:38:41.099Z,12.65
2023-05-09T01:41:10.709Z,12.80
2023-05-09T01:43:38.658Z,13.07
2023-05-09T01:46:06.065Z,13.95
2023-05-09T01:48:36.181Z,12.73
2023-05-09T01:53:31.028Z,16.00
2023-05-09T01:56:00.005Z,15.73
2023-05-09T01:58:27.893Z,12.25
2023-05-09T02:00:54.448Z,15.27
2023-05-09T02:03:22.345Z,13.80
2023-05-09T02:05:50.040Z,14.25
2023-05-09T02:08:21.066Z,14.82
2023-05-09T02:10:49.071Z,15.52
2023-05-09T02:13:16.092Z,14.65
2023-05-09T02:15:43.541Z,11.98
2023-05-09T02:18:09.952Z,13.95
2023-05-09T02:20:36.581Z,14.20
2023-05-09T02:23:03.911Z,14.48
2023-05-09T02:25:31.818Z,15.85
2023-05-09T02:27:59.724Z,15.02
2023-05-09T02:30:26.866Z,12.80
2023-05-09T02:32:58.567Z,13.93
2023-05-09T02:35:27.293Z,16.13
2023-05-09T02:37:54.668Z,14.68
2023-05-09T02:40:22.464Z,14.57
2023-05-09T02:42:48.862Z,13.05
2023-05-09T02:45:15.809Z,12.25
2023-05-09T02:47:42.568Z,14.00
2023-05-09T02:50:09.201Z,12.57
2023-05-09T02:52:37.413Z,14.68
2023-05-09T02:55:04.605Z,15.43
2023-05-09T02:57:33.952Z,14.63
2023-05-09T03:00:00.738Z,14.60
2023-05-09T03:02:28.209Z,12.80
2023-05-09T03:04:55.184Z,13.68
2023-05-09T03:07:21.576Z,14.45
2023-05-09T03:09:48.060Z,13.98
2023-05-09T03:12:14.554Z,14.48
2023-05-09T03:14:41.081Z,12.90
2023-05-09T03:17:07.549Z,14.95
2023-05-09T03:19:35.649Z,14.02
2023-05-09T03:22:02.037Z,12.65
2023-05-09T03:24:31.921Z,14.25
2023-05-09T03:26:58.378Z,15.55
2023-05-09T03:29:25.292Z,15.65
2023-05-09T03:31:52.059Z,13.98
2023-05-09T03:34:18.544Z,14.20
2023-05-09T03:36:45.017Z,13.75
2023-05-09T03:39:13.653Z,13.68
2023-05-09T03:41:44.126Z,13.18
2023-05-09T03:44:10.657Z,12.13
2023-05-09T03:46:37.235Z,13.02
2023-05-09T03:49:07.110Z,14.57
2023-05-09T03:51:34.933Z,16.13
2023-05-09T03:54:03.216Z,12.32
2023-05-09T03:56:29.621Z,14.05
2023-05-09T03:58:56.022Z,14.93
2023-05-09T04:01:23.329Z,15.52
2023-05-09T04:03:50.427Z,15.18
2023-05-09T04:06:16.937Z,13.93
2023-05-09T04:08:44.788Z,13.50
2023-05-09T04:11:11.333Z,13.32
2023-05-09T04:13:41.050Z,13.70
2023-05-09T04:16:20.909Z,13.55
2023-05-09T04:18:47.447Z,11.10
2023-05-09T04:21:14.322Z,13.13
2023-05-09T04:23:43.588Z,13.48
2023-05-09T04:26:13.774Z,12.75
2023-05-09T04:28:41.522Z,11.25
2023-05-09T04:31:09.163Z,9.65
2023-05-09T04:33:36.771Z,12.27
2023-05-09T04:36:04.425Z,11.77
2023-05-09T04:38:31.340Z,11.57
2023-05-09T04:40:58.903Z,10.43
2023-05-09T04:43:27.888Z,12.43
2023-05-09T04:45:54.393Z,10.25
2023-05-09T04:48:20.821Z,8.80
2023-05-09T04:50:48.522Z,10.27
2023-05-09T04:53:14.991Z,10.10
2023-05-09T04:55:41.945Z,8.85
2023-05-09T04:58:09.387Z,8.63
2023-05-09T05:00:36.073Z,8.75
2023-05-09T05:03:02.933Z,9.15
2023-05-09T05:05:31.927Z,7.20
2023-05-09T05:07:59.592Z,7.88
2023-05-09T05:10:31.791Z,9.25
2023-05-09T05:13:07.980Z,9.43
2023-05-09T05:18:05.035Z,9.63
2023-05-09T05:20:35.138Z,9.07
2023-05-09T05:23:01.571Z,9.35
2023-05-09T05:25:28.057Z,8.52
2023-05-09T05:27:55.456Z,8.68
2023-05-09T05:30:22.106Z,6.65
2023-05-09T05:32:49.223Z,8.35
2023-05-09T05:35:19.262Z,8.90
2023-05-09T05:37:47.638Z,8.52
2023-05-09T05:40:15.822Z,9.05
2023-05-09T05:42:46.073Z,9.10
2023-05-09T05:45:12.704Z,8.68
2023-05-09T05:47:42.088Z,9.27
2023-05-09T05:50:11.813Z,9.48
2023-05-09T05:52:41.939Z,7.88
2023-05-09T05:55:12.090Z,9.82
2023-05-09T05:57:39.237Z,7.93
2023-05-09T06:00:11.795Z,7.55
2023-05-09T06:02:45.256Z,7.82
2023-05-09T06:05:19.268Z,8.70
2023-05-09T06:07:45.952Z,9.57
2023-05-09T06:10:12.424Z,7.32
2023-05-09T06:12:38.909Z,7.78
2023-05-09T06:15:07.109Z,9.63
2023-05-09T06:17:37.223Z,9.27
2023-05-09T06:20:03.982Z,9.95
2023-05-09T06:22:30.448Z,8.63
2023-05-09T06:24:56.856Z,8.90
2023-05-09T06:27:23.365Z,8.05
2023-05-09T06:29:49.865Z,6.82
2023-05-09T06:32:18.665Z,9.10
2023-05-09T06:34:45.204Z,9.35
2023-05-09T06:37:11.638Z,7.55
2023-05-09T06:39:38.149Z,8.02
2023-05-09T06:42:04.645Z,8.20
2023-05-09T06:44:32.726Z,7.57
2023-05-09T06:46:59.143Z,9.27
2023-05-09T06:49:26.413Z,6.85
2023-05-09T06:51:52.837Z,6.53
2023-05-09T06:54:19.341Z,7.97
2023-05-09T06:56:45.814Z,8.95
2023-05-09T06:59:13.399Z,6.57
2023-05-09T07:01:40.969Z,6.75
2023-05-09T07:04:07.672Z,8.18
2023-05-09T07:06:34.226Z,7.00
2023-05-09T07:09:00.854Z,8.23
2023-05-09T07:11:27.360Z,8.30
2023-05-09T07:13:53.849Z,6.00
2023-05-09T07:16:22.797Z,7.80
2023-05-09T07:18:49.286Z,7.05
2023-05-09T07:21:15.741Z,7.15
2023-05-09T07:23:42.202Z,6.38
2023-05-09T07:26:08.667Z,6.95
2023-05-09T07:28:35.252Z,7.95
2023-05-09T07:31:01.678Z,8.43
2023-05-09T07:33:28.144Z,6.75
2023-05-09T07:35:54.694Z,6.53
2023-05-09T07:38:21.147Z,9.15
2023-05-09T07:40:47.697Z,28.95
2023-05-09T07:43:14.234Z,35.50
2023-05-09T07:45:40.931Z,8.40
2023-05-09T07:48:07.646Z,8.07
2023-05-09T07:50:34.144Z,8.80
2023-05-09T07:53:00.784Z,7.63
2023-05-09T07:55:27.181Z,8.88
2023-05-09T07:57:53.591Z,8.98
2023-05-09T08:00:23.844Z,8.05
2023-05-09T08:02:54.322Z,8.20
2023-05-09T08:05:20.946Z,6.80
2023-05-09T08:07:47.361Z,8.70
2023-05-09T08:10:13.899Z,8.15
2023-05-09T08:12:40.420Z,6.18
2023-05-09T08:15:07.579Z,6.63
2023-05-09T08:17:34.084Z,7.78
2023-05-09T08:20:00.598Z,7.40
2023-05-09T08:22:27.103Z,6.80
2023-05-09T08:24:53.537Z,7.50
2023-05-09T08:27:19.922Z,7.22
2023-05-09T08:29:46.352Z,7.72
2023-05-09T08:32:12.874Z,8.13
2023-05-09T08:34:39.293Z,7.65
2023-05-09T08:37:05.805Z,7.05
2023-05-09T08:39:34.901Z,6.18
2023-05-09T08:42:02.693Z,6.10
2023-05-09T08:44:30.860Z,5.82
2023-05-09T08:47:02.240Z,7.38
2023-05-09T08:49:29.491Z,5.53
2023-05-09T08:51:56.803Z,6.25
2023-05-09T08:54:24.655Z,5.35
2023-05-09T08:56:51.587Z,4.35
2023-05-09T08:59:18.935Z,5.18
2023-05-09T09:01:45.947Z,5.07
2023-05-09T09:04:12.553Z,4.32
2023-05-09T09:06:40.082Z,3.60
2023-05-09T09:09:11.142Z,5.32
2023-05-09T09:11:38.985Z,4.07
2023-05-09T09:14:15.505Z,3.85
2023-05-09T09:16:44.404Z,5.72
2023-05-09T09:19:16.444Z,4.70
2023-05-09T09:21:45.503Z,4.25
2023-05-09T09:24:21.394Z,6.15
2023-05-09T09:26:49.532Z,4.05
2023-05-09T09:29:17.731Z,5.47
2023-05-09T09:31:48.194Z,5.25
2023-05-09T09:34:22.306Z,3.63
2023-05-09T09:36:49.533Z,3.33
2023-05-09T09:39:16.273Z,5.05
2023-05-09T09:41:44.536Z,2.83
2023-05-09T09:44:14.276Z,4.90
2023-05-09T09:46:51.883Z,4.43
2023-05-09T09:49:26.600Z,4.72
2023-05-09T09:51:58.046Z,5.43
2023-05-09T09:54:27.916Z,3.78
2023-05-09T09:56:55.103Z,4.05
2023-05-09T09:59:24.967Z,3.00
2023-05-09T10:01:54.390Z,3.35
2023-05-09T10:04:21.113Z,3.78
2023-05-09T10:06:55.085Z,3.40
2023-05-09T10:09:23.546Z,3.70
2023-05-09T10:11:54.458Z,3.50
2023-05-09T10:14:25.947Z,3.63
2023-05-09T10:16:56.669Z,31.90
2023-05-09T10:19:25.051Z,16.58
2023-05-09T10:21:55.135Z,3.65
2023-05-09T10:24:28.488Z,3.10
2023-05-09T10:27:04.130Z,4.90
2023-05-09T10:29:35.033Z,3.95
2023-05-09T10:32:09.552Z,3.78
2023-05-09T10:34:40.258Z,3.30
2023-05-09T10:37:08.837Z,4.20
2023-05-09T10:39:36.949Z,3.67
2023-05-09T10:42:05.018Z,3.08
2023-05-09T10:44:32.442Z,2.85
2023-05-09T10:46:59.647Z,3.40
2023-05-09T10:49:26.682Z,3.10
2023-05-09T10:51:53.093Z,3.03
2023-05-09T10:54:30.702Z,2.92
2023-05-09T10:56:57.860Z,3.85
2023-05-09T10:59:35.610Z,4.18
2023-05-09T11:02:03.327Z,2.83
2023-05-09T11:04:31.190Z,3.40
2023-05-09T11:06:58.393Z,4.00
2023-05-09T11:09:28.875Z,2.80
2023-05-09T11:14:30.581Z,2.42
2023-05-09T11:16:58.935Z,4.18
2023-05-09T11:19:49.435Z,4.32
2023-05-09T11:22:16.865Z,3.35
2023-05-09T11:25:05.078Z,4.00
2023-05-09T11:27:48.574Z,3.97
2023-05-09T11:30:17.482Z,3.55
2023-05-09T11:33:00.917Z,3.22
2023-05-09T11:35:27.982Z,3.60
2023-05-09T11:38:06.119Z,3.22
2023-05-09T11:40:34.484Z,3.20
2023-05-09T11:43:01.751Z,2.88
2023-05-09T11:45:30.773Z,3.00
2023-05-09T11:47:57.574Z,2.80
2023-05-09T11:50:24.681Z,3.50
2023-05-09T11:52:51.411Z,2.38
2023-05-09T11:55:22.431Z,2.80
2023-05-09T11:57:51.750Z,3.95
2023-05-09T12:00:20.898Z,2.70
2023-05-09T12:02:47.695Z,3.63
2023-05-09T12:05:19.102Z,3.75
2023-05-09T12:07:46.934Z,2.83
2023-05-09T12:10:16.249Z,3.05
2023-05-09T12:12:45.800Z,3.88
2023-05-09T12:15:13.974Z,3.15
2023-05-09T12:17:45.372Z,3.38
2023-05-09T12:20:12.083Z,4.38
2023-05-09T12:22:38.876Z,4.10
2023-05-09T12:25:07.571Z,2.88
2023-05-09T12:27:38.381Z,2.55
2023-05-09T12:30:10.817Z,2.88
2023-05-09T12:32:40.242Z,3.05
2023-05-09T12:35:08.603Z,3.22
2023-05-09T12:37:35.017Z,3.35
2023-05-09T12:40:02.472Z,3.78
2023-05-09T12:42:29.347Z,3.97
2023-05-09T12:44:56.701Z,3.75
2023-05-09T12:47:27.266Z,2.60
2023-05-09T12:49:57.527Z,3.88
2023-05-09T12:52:23.984Z,3.33
2023-05-09T12:54:52.618Z,3.55
2023-05-09T12:57:23.997Z,3.15
2023-05-09T12:59:50.649Z,2.50
2023-05-09T13:02:17.774Z,2.72
2023-05-09T13:04:44.265Z,3.53
2023-05-09T13:07:10.871Z,2.08
2023-05-09T13:09:55.407Z,3.53
2023-05-09T13:12:21.846Z,2.88
2023-05-09T13:14:48.409Z,2.47
2023-05-09T13:17:14.899Z,1.90
2023-05-09T13:19:41.327Z,3.03
2023-05-09T13:22:07.706Z,2.80
2023-05-09T13:24:34.089Z,3.35
2023-05-09T13:27:00.545Z,2.58
2023-05-09T13:29:26.945Z,2.85
2023-05-09T13:31:53.375Z,2.10
2023-05-09T13:34:19.834Z,2.83
2023-05-09T13:36:46.307Z,3.28
2023-05-09T13:39:13.435Z,1.75
2023-05-09T13:41:39.841Z,2.90
2023-05-09T13:44:06.285Z,1.85
2023-05-09T13:46:32.824Z,1.58
2023-05-09T13:48:59.403Z,3.33
2023-05-09T13:51:25.882Z,2.33
2023-05-09T13:53:52.466Z,1.92
2023-05-09T13:56:19.476Z,1.95
2023-05-09T13:58:45.940Z,3.00
2023-05-09T14:01:12.457Z,1.70
2023-05-09T14:03:39.058Z,2.10
2023-05-09T14:06:05.759Z,2.67
2023-05-09T14:08:32.278Z,1.92
2023-05-09T14:10:58.676Z,1.90
2023-05-09T14:13:25.342Z,1.75
2023-05-09T14:15:51.890Z,2.15
2023-05-09T14:18:20.739Z,3.10
2023-05-09T14:20:47.332Z,2.83
2023-05-09T14:23:13.712Z,1.73
2023-05-09T14:25:40.093Z,1.55
2023-05-09T14:28:09.171Z,1.80
2023-05-09T14:30:36.521Z,2.50
2023-05-09T14:33:03.005Z,1.70
2023-05-09T14:35:32.735Z,1.50
2023-05-09T14:38:00.414Z,1.73
2023-05-09T14:40:31.687Z,1.95
2023-05-09T14:42:59.294Z,1.58
2023-05-09T14:45:26.423Z,1.67
2023-05-09T14:47:53.391Z,1.45
2023-05-09T14:50:21.595Z,1.75
2023-05-09T14:52:50.127Z,2.58
2023-05-09T14:55:18.045Z,1.67
2023-05-09T14:57:44.467Z,2.38
2023-05-09T15:00:20.431Z,1.77
2023-05-09T15:02:48.163Z,1.90
2023-05-09T15:05:14.677Z,2.22
2023-05-09T15:07:41.423Z,1.98
2023-05-09T15:10:08.193Z,1.73
2023-05-09T15:12:34.573Z,3.47
2023-05-09T15:15:17.160Z,1.90
2023-05-09T15:17:44.791Z,3.20
2023-05-09T15:20:12.216Z,1.63
2023-05-09T15:22:38.650Z,2.30
2023-05-09T15:25:06.280Z,2.70
2023-05-09T15:27:32.862Z,2.65
2023-05-09T15:29:59.309Z,3.17
2023-05-09T15:32:26.072Z,2.95
2023-05-09T15:34:52.774Z,1.83
2023-05-09T15:37:19.213Z,2.45
2023-05-09T15:39:46.240Z,2.42
2023-05-09T15:42:13.415Z,1.55
2023-05-09T15:44:40.726Z,1.58
2023-05-09T15:47:07.834Z,2.47
2023-05-09T15:49:34.540Z,1.77
2023-05-09T15:52:03.906Z,2.00
2023-05-09T15:54:31.741Z,2.03
2023-05-09T15:56:59.189Z,2.13
2023-05-09T15:59:26.377Z,2.10
2023-05-09T16:01:53.159Z,1.60
2023-05-09T16:04:19.767Z,1.60
2023-05-09T16:06:47.157Z,1.02
2023-05-09T16:09:13.820Z,1.55
2023-05-09T16:11:41.429Z,0.80
2023-05-09T16:14:11.263Z,1.42
2023-05-09T16:19:08.661Z,0.70
2023-05-09T16:21:37.527Z,2.53
2023-05-09T16:24:04.875Z,1.05
2023-05-09T16:26:31.409Z,0.50
2023-05-09T16:28:57.949Z,1.55
2023-05-09T16:31:26.582Z,1.70
2023-05-09T16:33:54.154Z,1.13
2023-05-09T16:36:21.245Z,0.85
2023-05-09T16:38:47.818Z,1.10
2023-05-09T16:41:14.466Z,0.60
2023-05-09T16:43:41.412Z,0.57
2023-05-09T16:46:08.296Z,1.10
2023-05-09T16:48:34.829Z,0.80
2023-05-09T16:51:01.291Z,1.63
2023-05-09T16:53:28.062Z,1.13
2023-05-09T16:55:54.719Z,1.33
2023-05-09T16:58:21.153Z,0.40
2023-05-09T17:00:47.847Z,1.20
2023-05-09T17:03:14.419Z,0.57
2023-05-09T17:05:40.898Z,0.50
2023-05-09T17:08:07.646Z,0.90
2023-05-09T17:10:35.815Z,1.52
2023-05-09T17:13:08.368Z,1.13
2023-05-09T17:15:34.897Z,1.73
2023-05-09T17:18:01.528Z,0.80
2023-05-09T17:20:28.873Z,0.63
2023-05-09T17:22:56.346Z,1.75
2023-05-09T17:25:23.356Z,0.95
2023-05-09T17:27:49.791Z,0.80
2023-05-09T17:30:16.612Z,2.38
2023-05-09T17:32:43.361Z,1.35
2023-05-09T17:35:10.035Z,1.52
2023-05-09T17:37:36.582Z,2.35
2023-05-09T17:40:05.072Z,1.90
2023-05-09T17:42:32.125Z,1.65
2023-05-09T17:44:58.601Z,0.85
2023-05-09T17:47:25.135Z,1.63
2023-05-09T17:49:52.101Z,2.45
2023-05-09T17:52:18.607Z,2.05
2023-05-09T17:54:45.297Z,1.30
2023-05-09T17:57:11.731Z,2.53
2023-05-09T17:59:40.559Z,1.58
2023-05-09T18:02:08.000Z,2.88
2023-05-09T18:04:34.700Z,2.72
2023-05-09T18:07:01.517Z,3.10
2023-05-09T18:09:28.556Z,3.10
2023-05-09T18:11:55.111Z,1.83
2023-05-09T18:14:21.534Z,3.05
2023-05-09T18:16:48.008Z,3.55
2023-05-09T18:19:14.412Z,3.33
2023-05-09T18:21:40.894Z,4.32
2023-05-09T18:24:09.098Z,3.00
2023-05-09T18:26:35.601Z,2.78
2023-05-09T18:29:02.024Z,2.90
2023-05-09T18:31:28.665Z,2.45
2023-05-09T18:33:55.365Z,3.33
2023-05-09T18:36:21.814Z,3.55
2023-05-09T18:38:48.339Z,3.55
2023-05-09T18:41:15.662Z,2.38
2023-05-09T18:43:45.887Z,3.38
2023-05-09T18:46:22.601Z,3.60
2023-05-09T18:51:19.426Z,3.75
2023-05-09T18:53:49.280Z,3.65
2023-05-09T18:56:16.166Z,2.47
2023-05-09T18:58:42.737Z,3.00
2023-05-09T19:01:11.554Z,3.00
2023-05-09T19:03:45.628Z,2.67
2023-05-09T19:06:13.614Z,4.05
2023-05-09T19:08:41.639Z,3.90
2023-05-09T19:11:08.120Z,4.35
2023-05-09T19:13:38.158Z,3.25
2023-05-09T19:16:05.407Z,4.32
2023-05-09T19:18:31.938Z,4.07
2023-05-09T19:20:58.909Z,2.95
2023-05-09T19:23:28.951Z,3.10
2023-05-09T19:28:22.927Z,4.25
2023-05-09T19:30:50.069Z,4.20
2023-05-09T19:33:16.633Z,3.63
2023-05-09T19:35:43.796Z,4.30
2023-05-09T19:38:11.844Z,4.18
2023-05-09T19:40:39.092Z,3.45
2023-05-09T19:43:06.779Z,4.65
2023-05-09T19:45:33.289Z,3.88
2023-05-09T19:47:59.810Z,3.80
2023-05-09T19:50:26.318Z,4.57
2023-05-09T19:52:52.749Z,3.08
2023-05-09T19:55:19.218Z,3.20
2023-05-09T19:57:45.622Z,2.65
2023-05-09T20:00:12.565Z,3.17
2023-05-09T20:02:39.235Z,2.58
2023-05-09T20:05:06.156Z,2.95
2023-05-09T20:07:32.671Z,3.13
2023-05-09T20:09:59.159Z,2.50
2023-05-09T20:12:27.307Z,1.25
2023-05-09T20:14:55.095Z,2.83
2023-05-09T20:17:21.678Z,2.85
2023-05-09T20:19:48.237Z,2.10
2023-05-09T20:22:14.720Z,1.35
2023-05-09T20:24:41.430Z,1.52
2023-05-09T20:27:08.003Z,2.00
2023-05-09T20:29:34.503Z,2.03
2023-05-09T20:32:01.129Z,2.08
2023-05-09T20:34:27.663Z,2.42
2023-05-09T20:36:54.921Z,1.60
2023-05-09T20:39:22.909Z,1.60
2023-05-09T20:41:50.542Z,2.30
2023-05-09T20:44:17.934Z,2.13
2023-05-09T20:46:45.414Z,1.50
2023-05-09T20:49:12.376Z,1.75
2023-05-09T20:51:39.107Z,2.00
2023-05-09T20:54:05.864Z,1.55
2023-05-09T20:56:33.551Z,1.70
2023-05-09T20:59:00.952Z,2.20
2023-05-09T21:01:27.517Z,2.05
2023-05-09T21:03:54.288Z,2.53
2023-05-09T21:06:20.957Z,1.73
2023-05-09T21:08:47.457Z,2.05
2023-05-09T21:11:14.003Z,3.22
2023-05-09T21:13:40.537Z,2.47
2023-05-09T21:16:07.075Z,2.15
2023-05-09T21:18:33.572Z,1.55
2023-05-09T21:21:02.617Z,2.15
2023-05-09T21:23:29.169Z,3.10
2023-05-09T21:25:55.617Z,1.92
2023-05-09T21:28:22.088Z,2.95
2023-05-09T21:30:52.632Z,2.63
2023-05-09T21:33:19.999Z,2.85
2023-05-09T21:35:46.879Z,3.25
2023-05-09T21:38:13.780Z,3.28
2023-05-09T21:40:41.102Z,3.83
2023-05-09T21:43:07.632Z,2.92
2023-05-09T21:45:34.157Z,3.50
2023-05-09T21:48:00.746Z,2.78
2023-05-09T21:50:27.314Z,2.72
2023-05-09T21:52:56.075Z,3.25
2023-05-09T21:55:22.818Z,3.92
2023-05-09T21:57:49.300Z,3.58
2023-05-09T22:00:16.903Z,3.88
2023-05-09T22:02:43.800Z,5.90
2023-05-09T22:05:11.094Z,3.80
2023-05-09T22:07:37.534Z,4.10
2023-05-09T22:10:05.198Z,5.53
2023-05-09T22:12:31.766Z,3.67
2023-05-09T22:14:58.155Z,4.55
2023-05-09T22:17:24.697Z,4.13
2023-05-09T22:19:51.322Z,5.38
2023-05-09T22:22:17.950Z,5.53
2023-05-09T22:24:44.459Z,4.88
2023-05-09T22:27:11.091Z,6.03
2023-05-09T22:29:37.603Z,4.15
2023-05-09T22:32:04.686Z,3.67
2023-05-09T22:34:31.188Z,5.35
2023-05-09T22:36:57.577Z,4.45
2023-05-09T22:39:24.177Z,5.25
2023-05-09T22:41:50.623Z,4.85
2023-05-09T22:44:17.038Z,4.72
2023-05-09T22:46:43.421Z,4.35
2023-05-09T22:49:09.952Z,6.15
2023-05-09T22:51:36.401Z,5.00
2023-05-09T22:54:02.934Z,6.93
2023-05-09T22:56:29.378Z,5.25
2023-05-09T22:58:55.933Z,4.55
2023-05-09T23:01:22.447Z,5.80
2023-05-09T23:03:48.881Z,6.07
2023-05-09T23:06:15.356Z,5.90
2023-05-09T23:08:41.926Z,5.32
2023-05-09T23:11:08.341Z,5.53
2023-05-09T23:13:34.820Z,6.80
2023-05-09T23:16:01.735Z,5.10
2023-05-09T23:18:28.545Z,7.22
2023-05-09T23:20:54.950Z,6.45
2023-05-09T23:23:21.367Z,6.45
2023-05-09T23:25:47.803Z,6.05
2023-05-09T23:28:14.207Z,6.10
2023-05-09T23:30:40.613Z,8.98
2023-05-09T23:33:07.091Z,8.35
2023-05-09T23:35:33.568Z,7.63
2023-05-09T23:38:00.318Z,4.47
2023-05-09T23:40:26.737Z,7.70
2023-05-09T23:42:53.279Z,7.18
2023-05-09T23:45:19.846Z,6.78
2023-05-09T23:47:46.355Z,6.70
2023-05-09T23:50:13.311Z,5.57
2023-05-09T23:52:41.524Z,6.05
2023-05-09T23:55:08.600Z,8.13
2023-05-09T23:57:35.126Z,5.50
